Skykomish, WA (98288)

9:57 AM PST on December 10, 2016 (GMT -0800)
Riverwood | | Change Station
Active Advisory: Winter Weather Advisory Active Notice: Public Information Statement

Elev 778 ft 47.76 °N, 121.48 °W | Updated 32 seconds ago

Snow
Snow
30.1 °F
Feels Like 30 °F
N
0.0
Wind Variable Wind from SW

Today
High -- | Low -- °F
--% Chance of Precip.
Yesterday
High -- | Low -- °F
Precip. -- in
Pressure 29.89 in
Visibility 9.0 miles
Clouds Few 6000 ft
Windchill 30 °F
Dew Point 28 °F
Humidity 95%
Rainfall 0.00 in
Snow Depth Not available.
7:43 AM 4:13 PM
Waxing Gibbous, 85% visible
METAR KRNT 101753Z 12004KT 9SM FEW060 03/02 A2987 RMK AO2 RAB1655E06 SLP120 P0000 60000 T00330017 10033 20006 58000
Pressure 29.89 in
Visibility 9.0 miles
Clouds Few 6000 ft
Windchill 30 °F
Dew Point 28 °F
Humidity 95%
Rainfall 0.00 in
Snow Depth Not available.
7:43 AM 4:13 PM
Waxing Gibbous, 85% visible
METAR KRNT 101753Z 12004KT 9SM FEW060 03/02 A2987 RMK AO2 RAB1655E06 SLP120 P0000 60000 T00330017 10033 20006 58000

10-Day Weather Forecast

Almanac

Astronomy

Dec. 10, 2016 Rise Set
Actual Time
Civil Twilight
Nautical Twilight
Astronomical Twilight
Moon
Length of Visible Light
Length of Day
Tomorrow will be .
, % of the Moon is Illuminated

Today's Extremes

State Highs State Lows

Community

WunderPhotos

Upload Photos

1,956,591 photos uploaded!

WunderBlog® & News

Nearby

Air Quality

  Air Quality AQ Index Pollutant
Not available.

Snow Depth

Station Depth Elevation

Earthquake Activity

City Distance Mag. Time & Date
Minimum magnitude displayed is 2.5.

Coastal Water Temperatures

Place Temperature

Stations

Nearby Weather Stations

Station Location Temp. Windchill Dew Point Humidity Wind Precip. Elev Updated Type
                   

Watches & Warnings

Winter Weather Advisory
Issued: 9:19 AM PST Dec. 10, 2016 – National Weather Service

... Winter Weather Advisory in effect from 2 PM this afternoon to
noon PST Sunday...

The National Weather Service in Seattle has issued a Winter Weather
Advisory for snow... which is in effect from 2 PM this afternoon
to noon PST Sunday.

* Locations... Snoqualmie Pass... Stevens Pass... Mount Baker and
Mount Rainier.

* Timing... snow will pick up this afternoon and become heavy at
times this evening. Lighter snow will continue through at least
Sunday morning.

* Main impact... 6 to 12 inches of snow at Stevens and Snoqualmie
passes through Sunday morning, and 10 to 16 inches at Mount
Baker and Mount Rainier. Most intense snowfall will occur this
evening.

* Snow level... near 2000 feet from this afternoon through
tonight... then falling to near 1500 feet on Sunday morning.

* Other impacts... travel into and through the Cascades will be
difficult due to snow covered roadways.

Precautionary/preparedness actions...

A Winter Weather Advisory for snow means that periods of snow
will cause primarily travel difficulties. Be prepared for snow
covered roads and limited visibilities, and use caution while
driving.